createdAt,value
2023-05-12T00:03:51.621Z,85.78
2023-05-12T00:08:54.321Z,85.88
2023-05-12T00:13:51.312Z,87.14
2023-05-12T00:18:51.244Z,85.03
2023-05-12T00:23:51.157Z,85.41
2023-05-12T00:28:51.114Z,85.58
2023-05-12T00:33:50.982Z,84.97
2023-05-12T00:38:51.059Z,84.76
2023-05-12T00:43:50.819Z,85.27
2023-05-12T00:48:50.786Z,86.61
2023-05-12T00:53:50.859Z,87.63
2023-05-12T00:58:50.764Z,86.92
2023-05-12T01:03:50.628Z,88.18
2023-05-12T01:08:53.558Z,86.13
2023-05-12T01:13:50.478Z,87.53
2023-05-12T01:18:50.550Z,86.06
2023-05-12T01:23:50.312Z,86.06
2023-05-12T01:28:50.277Z,87.73
2023-05-12T01:33:50.186Z,86.10
2023-05-12T01:38:50.168Z,86.82
2023-05-12T01:43:50.062Z,86.30
2023-05-12T01:48:50.026Z,86.61
2023-05-12T01:53:49.951Z,86.86
2023-05-12T01:58:49.936Z,86.96
2023-05-12T02:03:49.923Z,87.37
2023-05-12T02:08:53.005Z,86.76
2023-05-12T02:13:49.682Z,87.47
2023-05-12T02:18:49.668Z,86.65
2023-05-12T02:23:49.621Z,87.61
2023-05-12T02:28:49.539Z,87.30
2023-05-12T02:33:49.454Z,87.00
2023-05-12T02:38:49.420Z,86.29
2023-05-12T02:43:49.325Z,86.80
2023-05-12T02:48:49.300Z,86.90
2023-05-12T02:53:49.162Z,86.69
2023-05-12T02:58:49.154Z,86.57
2023-05-12T03:03:49.195Z,87.53
2023-05-12T03:08:52.025Z,87.84
2023-05-12T03:13:48.928Z,88.14
2023-05-12T03:18:48.986Z,87.49
2023-05-12T03:23:48.806Z,88.59
2023-05-12T03:28:48.748Z,88.70
2023-05-12T03:33:48.645Z,88.79
2023-05-12T03:38:48.601Z,88.90
2023-05-12T03:43:48.504Z,88.35
2023-05-12T03:48:48.506Z,88.85
2023-05-12T03:53:48.386Z,86.43
2023-05-12T03:58:48.462Z,86.83
2023-05-12T04:03:48.389Z,86.43
2023-05-12T04:08:51.286Z,86.80
2023-05-12T04:13:48.141Z,87.20
2023-05-12T04:18:48.181Z,85.57
2023-05-12T04:23:48.288Z,85.08
2023-05-12T04:28:48.175Z,84.94
2023-05-12T04:33:48.553Z,84.29
2023-05-12T04:38:47.889Z,84.19
2023-05-12T04:48:47.766Z,83.09
2023-05-12T04:53:47.616Z,82.68
2023-05-12T04:58:47.571Z,82.14
2023-05-12T05:03:47.597Z,81.84
2023-05-12T05:08:50.471Z,81.90
2023-05-12T05:13:47.378Z,82.45
2023-05-12T05:18:47.338Z,81.63
2023-05-12T05:23:47.184Z,81.35
2023-05-12T05:28:47.166Z,80.74
2023-05-12T05:33:47.080Z,80.94
2023-05-12T05:38:47.122Z,80.74
2023-05-12T05:43:46.964Z,80.71
2023-05-12T05:48:46.917Z,80.40
2023-05-12T05:53:46.809Z,81.05
2023-05-12T05:58:46.792Z,80.66
2023-05-12T06:03:46.741Z,79.51
2023-05-12T06:08:49.664Z,78.12
2023-05-12T06:13:46.577Z,78.16
2023-05-12T06:18:46.586Z,78.97
2023-05-12T06:23:46.477Z,77.37
2023-05-12T06:28:46.418Z,76.63
2023-05-12T06:33:46.295Z,75.10
2023-05-12T06:38:46.308Z,71.94
2023-05-12T06:43:46.208Z,69.95
2023-05-12T06:48:46.498Z,69.49
2023-05-12T06:53:46.044Z,67.91
2023-05-12T06:58:46.011Z,66.71
2023-05-12T07:03:46.021Z,66.11
2023-05-12T07:08:48.871Z,64.67
2023-05-12T07:13:45.834Z,64.77
2023-05-12T07:18:45.834Z,63.87
2023-05-12T07:23:45.644Z,60.91
2023-05-12T07:28:45.635Z,60.38
2023-05-12T07:33:45.522Z,59.85
2023-05-12T07:38:45.494Z,58.19
2023-05-12T07:43:45.415Z,58.49
2023-05-12T07:48:45.353Z,59.30
2023-05-12T07:53:45.287Z,57.41
2023-05-12T07:58:47.299Z,59.22
2023-05-12T08:03:45.217Z,63.03
2023-05-12T08:08:48.090Z,62.08
2023-05-12T08:13:45.012Z,61.21
2023-05-12T08:18:45.018Z,63.14
2023-05-12T08:23:44.898Z,62.90
2023-05-12T08:28:44.848Z,64.58
2023-05-12T08:33:51.820Z,61.91
2023-05-12T08:38:45.738Z,60.25
2023-05-12T08:43:44.621Z,60.39
2023-05-12T08:48:44.568Z,60.80
2023-05-12T08:53:44.450Z,61.50
2023-05-12T08:58:44.625Z,61.17
2023-05-12T09:03:44.325Z,61.35
2023-05-12T09:08:47.349Z,60.62
2023-05-12T09:13:44.254Z,60.42
2023-05-12T09:18:44.261Z,57.96
2023-05-12T09:23:44.115Z,57.56
2023-05-12T09:28:44.098Z,55.55
2023-05-12T09:33:43.948Z,57.86
2023-05-12T09:38:43.965Z,56.48
2023-05-12T09:43:43.862Z,56.60
2023-05-12T09:48:43.825Z,56.10
2023-05-12T09:53:43.727Z,56.26
2023-05-12T09:58:43.640Z,53.57
2023-05-12T10:03:43.542Z,55.30
2023-05-12T10:08:46.748Z,57.48
2023-05-12T10:13:43.401Z,54.62
2023-05-12T10:18:43.505Z,50.42
2023-05-12T10:23:43.556Z,49.87
2023-05-12T10:28:43.277Z,51.57
2023-05-12T10:33:43.720Z,50.52
2023-05-12T10:38:43.205Z,47.04
2023-05-12T10:43:43.018Z,46.01
2023-05-12T10:48:42.997Z,47.02
2023-05-12T10:53:51.193Z,43.27
2023-05-12T10:58:44.122Z,46.07
2023-05-12T11:03:43.764Z,44.53
2023-05-12T11:08:46.160Z,42.83
2023-05-12T11:13:42.727Z,41.93
2023-05-12T11:18:43.016Z,41.91
2023-05-12T11:23:42.527Z,41.30
2023-05-12T11:28:42.573Z,42.13
2023-05-12T11:33:42.411Z,40.02
2023-05-12T11:38:43.102Z,39.42
2023-05-12T11:43:42.393Z,41.58
2023-05-12T11:48:42.293Z,39.98
2023-05-12T11:53:42.098Z,40.68
2023-05-12T11:58:42.064Z,41.28
2023-05-12T12:03:42.012Z,40.78
2023-05-12T12:08:44.946Z,41.17
2023-05-12T12:13:41.835Z,41.19
2023-05-12T12:18:41.869Z,40.08
2023-05-12T12:23:50.830Z,40.06
2023-05-12T12:28:42.935Z,40.34
2023-05-12T12:33:41.611Z,40.88
2023-05-12T12:38:41.556Z,40.98
2023-05-12T12:43:41.467Z,39.78
2023-05-12T12:48:41.397Z,39.80
2023-05-12T12:53:41.422Z,39.43
2023-05-12T12:58:41.300Z,37.81
2023-05-12T13:03:41.216Z,38.93
2023-05-12T13:08:44.187Z,37.30
2023-05-12T13:13:41.074Z,36.17
2023-05-12T13:18:41.157Z,37.04
2023-05-12T13:23:40.975Z,35.75
2023-05-12T13:28:40.903Z,37.12
2023-05-12T13:33:40.791Z,39.16
2023-05-12T13:38:40.822Z,40.30
2023-05-12T13:43:40.692Z,41.60
2023-05-12T13:48:40.696Z,40.98
2023-05-12T13:53:40.516Z,41.31
2023-05-12T13:58:40.705Z,40.24
2023-05-12T14:03:40.449Z,39.36
2023-05-12T14:08:43.404Z,37.93
2023-05-12T14:13:40.294Z,36.63
2023-05-12T14:18:42.594Z,38.50
2023-05-12T14:23:40.186Z,38.62
2023-05-12T14:28:40.169Z,39.02
2023-05-12T14:33:40.015Z,37.79
2023-05-12T14:38:40.018Z,39.36
2023-05-12T14:43:39.910Z,40.32
2023-05-12T14:48:39.954Z,39.80
2023-05-12T14:53:39.797Z,39.16
2023-05-12T14:58:39.897Z,38.14
2023-05-12T15:03:39.743Z,35.94
2023-05-12T15:08:42.722Z,38.07
2023-05-12T15:13:39.525Z,38.37
2023-05-12T15:18:39.516Z,36.92
2023-05-12T15:23:39.342Z,36.69
2023-05-12T15:28:39.372Z,37.13
2023-05-12T15:33:39.222Z,38.72
2023-05-12T15:38:39.692Z,38.39
2023-05-12T15:43:39.172Z,38.78
2023-05-12T15:48:39.218Z,39.28
2023-05-12T15:53:39.015Z,38.59
2023-05-12T15:58:39.036Z,39.72
2023-05-12T16:03:38.910Z,39.43
2023-05-12T16:08:41.882Z,39.56
2023-05-12T16:13:38.749Z,40.12
2023-05-12T16:18:38.920Z,39.24
2023-05-12T16:23:38.763Z,39.15
2023-05-12T16:28:38.550Z,38.00
2023-05-12T16:33:38.501Z,37.90
2023-05-12T16:38:38.395Z,37.30
2023-05-12T16:43:38.328Z,38.00
2023-05-12T16:48:38.594Z,38.10
2023-05-12T16:53:38.209Z,37.68
2023-05-12T16:58:38.156Z,38.40
2023-05-12T17:03:38.172Z,40.01
2023-05-12T17:08:41.386Z,40.52
2023-05-12T17:13:37.973Z,42.03
2023-05-12T17:23:37.767Z,41.55
2023-05-12T17:28:37.726Z,41.58
2023-05-12T17:33:37.658Z,41.49
2023-05-12T17:38:37.616Z,43.29
2023-05-12T17:43:37.526Z,45.24
2023-05-12T17:48:37.531Z,46.12
2023-05-12T17:53:37.458Z,49.39
2023-05-12T17:58:37.426Z,51.74
2023-05-12T18:03:37.316Z,54.43
2023-05-12T18:08:40.248Z,55.88
2023-05-12T18:13:37.142Z,57.98
2023-05-12T18:18:37.172Z,56.97
2023-05-12T18:23:37.082Z,57.90
2023-05-12T18:28:37.014Z,57.90
2023-05-12T18:33:36.876Z,58.05
2023-05-12T18:38:36.897Z,59.62
2023-05-12T18:43:36.714Z,62.93
2023-05-12T18:48:36.726Z,63.29
2023-05-12T18:53:36.599Z,63.22
2023-05-12T18:58:36.572Z,62.59
2023-05-12T19:03:36.472Z,61.17
2023-05-12T19:08:39.461Z,60.66
2023-05-12T19:13:36.341Z,62.14
2023-05-12T19:18:36.331Z,61.73
2023-05-12T19:23:36.231Z,60.72
2023-05-12T19:28:36.234Z,61.23
2023-05-12T19:33:36.089Z,61.80
2023-05-12T19:38:36.092Z,62.51
2023-05-12T19:43:35.953Z,62.85
2023-05-12T19:48:35.920Z,63.85
2023-05-12T19:53:35.831Z,63.02
2023-05-12T19:58:35.800Z,62.71
2023-05-12T20:03:35.718Z,63.09
2023-05-12T20:08:38.688Z,62.51
2023-05-12T20:13:35.559Z,62.28
2023-05-12T20:18:35.550Z,62.59
2023-05-12T20:23:35.496Z,63.45
2023-05-12T20:28:35.523Z,63.68
2023-05-12T20:33:35.342Z,64.22
2023-05-12T20:38:35.308Z,65.06
2023-05-12T20:43:35.177Z,67.38
2023-05-12T20:48:35.161Z,68.32
2023-05-12T20:53:35.081Z,69.30
2023-05-12T20:58:35.036Z,70.62
2023-05-12T21:03:34.928Z,71.30
2023-05-12T21:08:37.923Z,71.94
2023-05-12T21:13:34.825Z,73.19
2023-05-12T21:18:34.789Z,73.23
2023-05-12T21:23:34.710Z,74.58
2023-05-12T21:28:34.602Z,74.69
2023-05-12T21:33:34.525Z,74.72
2023-05-12T21:38:34.529Z,74.69
2023-05-12T21:43:34.354Z,75.47
2023-05-12T21:48:34.333Z,76.32
2023-05-12T21:53:34.232Z,76.59
2023-05-12T21:58:34.231Z,76.76
2023-05-12T22:03:34.138Z,77.68
2023-05-12T22:08:37.164Z,77.68
2023-05-12T22:13:34.077Z,77.82
2023-05-12T22:18:33.980Z,77.24
2023-05-12T22:23:34.010Z,76.39
2023-05-12T22:28:33.894Z,76.80
2023-05-12T22:33:33.791Z,78.06
2023-05-12T22:38:33.778Z,78.37
2023-05-12T22:43:33.666Z,79.08
2023-05-12T22:48:38.706Z,79.39
2023-05-12T22:53:34.547Z,79.18
2023-05-12T22:58:33.420Z,79.87
2023-05-12T23:03:33.427Z,81.34
2023-05-12T23:08:36.365Z,80.38
2023-05-12T23:13:33.252Z,81.24
2023-05-12T23:18:33.229Z,81.54
2023-05-12T23:23:33.180Z,81.95
2023-05-12T23:28:33.059Z,81.10
2023-05-12T23:33:33.100Z,81.74
2023-05-12T23:38:32.964Z,82.36
2023-05-12T23:43:32.836Z,82.56
2023-05-12T23:48:32.815Z,81.16
2023-05-12T23:53:32.712Z,80.69
2023-05-12T23:58:32.842Z,82.77
